sensor_id;sensor_type;location;lat;lon;timestamp;P1;durP1;ratioP1;P2;durP2;ratioP2
1026;SDS011;502;48.746;9.214;2023-04-25T00:00:13;5.23;;;3.70;;
1026;SDS011;502;48.746;9.214;2023-04-25T00:02:40;4.67;;;3.63;;
1026;SDS011;502;48.746;9.214;2023-04-25T00:05:07;3.70;;;2.90;;
1026;SDS011;502;48.746;9.214;2023-04-25T00:07:34;3.93;;;3.00;;
1026;SDS011;502;48.746;9.214;2023-04-25T00:10:01;5.07;;;3.40;;
1026;SDS011;502;48.746;9.214;2023-04-25T00:12:29;7.63;;;2.90;;
1026;SDS011;502;48.746;9.214;2023-04-25T00:14:55;3.57;;;2.90;;
1026;SDS011;502;48.746;9.214;2023-04-25T00:17:23;3.57;;;2.80;;
1026;SDS011;502;48.746;9.214;2023-04-25T00:19:50;3.00;;;2.60;;
1026;SDS011;502;48.746;9.214;2023-04-25T00:22:17;2.77;;;2.43;;
1026;SDS011;502;48.746;9.214;2023-04-25T00:24:44;2.93;;;2.50;;
1026;SDS011;502;48.746;9.214;2023-04-25T00:27:10;4.17;;;2.90;;
1026;SDS011;502;48.746;9.214;2023-04-25T00:29:38;4.33;;;2.90;;
1026;SDS011;502;48.746;9.214;2023-04-25T00:32:05;3.73;;;2.97;;
1026;SDS011;502;48.746;9.214;2023-04-25T00:34:31;4.20;;;3.30;;
1026;SDS011;502;48.746;9.214;2023-04-25T00:36:58;3.57;;;3.27;;
1026;SDS011;502;48.746;9.214;2023-04-25T00:39:27;6.30;;;2.90;;
1026;SDS011;502;48.746;9.214;2023-04-25T00:41:53;3.00;;;2.70;;
1026;SDS011;502;48.746;9.214;2023-04-25T00:44:20;3.50;;;3.20;;
1026;SDS011;502;48.746;9.214;2023-04-25T00:46:48;4.67;;;2.50;;
1026;SDS011;502;48.746;9.214;2023-04-25T00:49:16;3.10;;;2.60;;
1026;SDS011;502;48.746;9.214;2023-04-25T00:51:42;4.70;;;2.93;;
1026;SDS011;502;48.746;9.214;2023-04-25T00:54:10;3.93;;;3.07;;
1026;SDS011;502;48.746;9.214;2023-04-25T00:56:37;3.10;;;2.80;;
1026;SDS011;502;48.746;9.214;2023-04-25T00:59:04;4.07;;;2.87;;
1026;SDS011;502;48.746;9.214;2023-04-25T01:01:30;5.10;;;3.50;;
1026;SDS011;502;48.746;9.214;2023-04-25T01:03:58;3.73;;;3.23;;
1026;SDS011;502;48.746;9.214;2023-04-25T01:06:25;3.50;;;3.20;;
1026;SDS011;502;48.746;9.214;2023-04-25T01:08:52;4.60;;;3.20;;
1026;SDS011;502;48.746;9.214;2023-04-25T01:11:19;4.00;;;3.30;;
1026;SDS011;502;48.746;9.214;2023-04-25T01:13:46;4.10;;;3.37;;
1026;SDS011;502;48.746;9.214;2023-04-25T01:16:12;4.03;;;3.63;;
1026;SDS011;502;48.746;9.214;2023-04-25T01:18:39;4.67;;;3.80;;
1026;SDS011;502;48.746;9.214;2023-04-25T01:21:08;4.17;;;3.77;;
1026;SDS011;502;48.746;9.214;2023-04-25T01:23:36;4.20;;;3.50;;
1026;SDS011;502;48.746;9.214;2023-04-25T01:26:02;3.87;;;3.47;;
1026;SDS011;502;48.746;9.214;2023-04-25T01:28:30;3.97;;;3.57;;
1026;SDS011;502;48.746;9.214;2023-04-25T01:30:58;3.90;;;3.50;;
1026;SDS011;502;48.746;9.214;2023-04-25T01:33:25;4.47;;;4.07;;
1026;SDS011;502;48.746;9.214;2023-04-25T01:35:52;4.33;;;3.80;;
1026;SDS011;502;48.746;9.214;2023-04-25T01:38:20;4.27;;;3.87;;
1026;SDS011;502;48.746;9.214;2023-04-25T01:40:47;5.00;;;4.10;;
1026;SDS011;502;48.746;9.214;2023-04-25T01:43:18;4.40;;;4.00;;
1026;SDS011;502;48.746;9.214;2023-04-25T01:45:44;5.40;;;4.37;;
1026;SDS011;502;48.746;9.214;2023-04-25T01:48:12;5.10;;;4.60;;
1026;SDS011;502;48.746;9.214;2023-04-25T01:50:43;4.20;;;3.80;;
1026;SDS011;502;48.746;9.214;2023-04-25T01:53:11;4.27;;;3.50;;
1026;SDS011;502;48.746;9.214;2023-04-25T01:55:39;3.87;;;3.47;;
1026;SDS011;502;48.746;9.214;2023-04-25T01:58:10;3.50;;;3.17;;
1026;SDS011;502;48.746;9.214;2023-04-25T02:00:57;4.07;;;3.67;;
1026;SDS011;502;48.746;9.214;2023-04-25T02:03:29;4.70;;;4.00;;
1026;SDS011;502;48.746;9.214;2023-04-25T02:05:56;3.33;;;3.03;;
1026;SDS011;502;48.746;9.214;2023-04-25T02:08:24;4.90;;;4.03;;
1026;SDS011;502;48.746;9.214;2023-04-25T02:10:54;4.70;;;3.37;;
1026;SDS011;502;48.746;9.214;2023-04-25T02:13:22;4.13;;;3.50;;
1026;SDS011;502;48.746;9.214;2023-04-25T02:16:02;5.50;;;3.80;;
1026;SDS011;502;48.746;9.214;2023-04-25T02:18:29;4.33;;;3.73;;
1026;SDS011;502;48.746;9.214;2023-04-25T02:20:57;4.90;;;3.90;;
1026;SDS011;502;48.746;9.214;2023-04-25T02:23:24;3.63;;;3.10;;
1026;SDS011;502;48.746;9.214;2023-04-25T02:25:51;3.20;;;2.90;;
1026;SDS011;502;48.746;9.214;2023-04-25T02:28:21;4.97;;;3.30;;
1026;SDS011;502;48.746;9.214;2023-04-25T02:30:48;3.10;;;2.80;;
1026;SDS011;502;48.746;9.214;2023-04-25T02:33:14;4.70;;;3.30;;
1026;SDS011;502;48.746;9.214;2023-04-25T02:35:42;4.50;;;3.00;;
1026;SDS011;502;48.746;9.214;2023-04-25T02:38:08;4.13;;;3.10;;
1026;SDS011;502;48.746;9.214;2023-04-25T02:40:35;3.47;;;3.03;;
1026;SDS011;502;48.746;9.214;2023-04-25T02:43:01;4.17;;;2.70;;
1026;SDS011;502;48.746;9.214;2023-04-25T02:45:29;3.70;;;2.83;;
1026;SDS011;502;48.746;9.214;2023-04-25T02:47:56;3.23;;;2.70;;
1026;SDS011;502;48.746;9.214;2023-04-25T02:50:22;3.47;;;2.97;;
1026;SDS011;502;48.746;9.214;2023-04-25T02:52:49;3.90;;;2.80;;
1026;SDS011;502;48.746;9.214;2023-04-25T02:55:21;3.60;;;2.63;;
1026;SDS011;502;48.746;9.214;2023-04-25T02:57:47;3.70;;;2.87;;
1026;SDS011;502;48.746;9.214;2023-04-25T03:00:24;6.87;;;2.77;;
1026;SDS011;502;48.746;9.214;2023-04-25T03:02:52;4.23;;;3.37;;
1026;SDS011;502;48.746;9.214;2023-04-25T03:05:18;4.17;;;3.13;;
1026;SDS011;502;48.746;9.214;2023-04-25T03:07:45;3.13;;;2.77;;
1026;SDS011;502;48.746;9.214;2023-04-25T03:10:12;3.00;;;2.60;;
1026;SDS011;502;48.746;9.214;2023-04-25T03:12:39;4.00;;;2.60;;
1026;SDS011;502;48.746;9.214;2023-04-25T03:15:06;3.80;;;3.40;;
1026;SDS011;502;48.746;9.214;2023-04-25T03:17:33;3.33;;;3.03;;
1026;SDS011;502;48.746;9.214;2023-04-25T03:20:01;3.40;;;3.10;;
1026;SDS011;502;48.746;9.214;2023-04-25T03:22:30;3.27;;;2.73;;
1026;SDS011;502;48.746;9.214;2023-04-25T03:24:57;3.23;;;2.90;;
1026;SDS011;502;48.746;9.214;2023-04-25T03:27:24;2.97;;;2.60;;
1026;SDS011;502;48.746;9.214;2023-04-25T03:29:50;4.30;;;3.23;;
1026;SDS011;502;48.746;9.214;2023-04-25T03:32:17;3.00;;;2.70;;
1026;SDS011;502;48.746;9.214;2023-04-25T03:34:45;3.40;;;3.10;;
1026;SDS011;502;48.746;9.214;2023-04-25T03:37:13;2.93;;;2.63;;
1026;SDS011;502;48.746;9.214;2023-04-25T03:39:40;3.00;;;2.70;;
1026;SDS011;502;48.746;9.214;2023-04-25T03:42:06;4.17;;;2.90;;
1026;SDS011;502;48.746;9.214;2023-04-25T03:44:33;2.80;;;2.53;;
1026;SDS011;502;48.746;9.214;2023-04-25T03:47:00;5.83;;;3.53;;
1026;SDS011;502;48.746;9.214;2023-04-25T03:49:27;3.30;;;2.73;;
1026;SDS011;502;48.746;9.214;2023-04-25T03:52:00;3.33;;;2.80;;
1026;SDS011;502;48.746;9.214;2023-04-25T03:54:33;4.07;;;3.43;;
1026;SDS011;502;48.746;9.214;2023-04-25T04:00:16;5.30;;;2.43;;
1026;SDS011;502;48.746;9.214;2023-04-25T04:02:42;3.80;;;2.87;;
1026;SDS011;502;48.746;9.214;2023-04-25T04:05:10;4.40;;;3.00;;
1026;SDS011;502;48.746;9.214;2023-04-25T04:07:43;3.93;;;3.30;;
1026;SDS011;502;48.746;9.214;2023-04-25T04:10:12;4.03;;;3.03;;
1026;SDS011;502;48.746;9.214;2023-04-25T04:12:39;3.80;;;3.03;;
1026;SDS011;502;48.746;9.214;2023-04-25T04:15:06;3.90;;;3.13;;
1026;SDS011;502;48.746;9.214;2023-04-25T04:17:34;3.53;;;3.07;;
1026;SDS011;502;48.746;9.214;2023-04-25T04:20:01;4.47;;;3.20;;
1026;SDS011;502;48.746;9.214;2023-04-25T04:22:30;3.20;;;2.90;;
1026;SDS011;502;48.746;9.214;2023-04-25T04:25:01;3.97;;;3.40;;
1026;SDS011;502;48.746;9.214;2023-04-25T04:27:56;3.60;;;3.30;;
1026;SDS011;502;48.746;9.214;2023-04-25T04:30:39;3.70;;;2.87;;
1026;SDS011;502;48.746;9.214;2023-04-25T04:33:07;3.90;;;3.20;;
1026;SDS011;502;48.746;9.214;2023-04-25T04:35:34;4.00;;;3.00;;
1026;SDS011;502;48.746;9.214;2023-04-25T04:38:01;3.90;;;3.40;;
1026;SDS011;502;48.746;9.214;2023-04-25T04:40:32;4.00;;;3.60;;
1026;SDS011;502;48.746;9.214;2023-04-25T04:43:21;3.63;;;3.27;;
1026;SDS011;502;48.746;9.214;2023-04-25T04:46:10;3.83;;;3.43;;
1026;SDS011;502;48.746;9.214;2023-04-25T04:48:58;3.83;;;3.47;;
1026;SDS011;502;48.746;9.214;2023-04-25T04:51:40;5.27;;;3.87;;
1026;SDS011;502;48.746;9.214;2023-04-25T04:54:27;4.00;;;3.60;;
1026;SDS011;502;48.746;9.214;2023-04-25T04:57:13;4.27;;;3.70;;
1026;SDS011;502;48.746;9.214;2023-04-25T05:00:02;3.73;;;3.23;;
1026;SDS011;502;48.746;9.214;2023-04-25T05:02:55;4.13;;;3.60;;
1026;SDS011;502;48.746;9.214;2023-04-25T05:05:41;4.30;;;3.60;;
1026;SDS011;502;48.746;9.214;2023-04-25T05:08:27;4.40;;;3.37;;
1026;SDS011;502;48.746;9.214;2023-04-25T05:11:13;4.80;;;3.47;;
1026;SDS011;502;48.746;9.214;2023-04-25T05:13:54;5.47;;;3.97;;
1026;SDS011;502;48.746;9.214;2023-04-25T05:16:46;4.77;;;3.60;;
1026;SDS011;502;48.746;9.214;2023-04-25T05:19:21;9.13;;;4.17;;
1026;SDS011;502;48.746;9.214;2023-04-25T05:22:08;4.17;;;3.60;;
1026;SDS011;502;48.746;9.214;2023-04-25T05:24:59;4.40;;;3.70;;
1026;SDS011;502;48.746;9.214;2023-04-25T05:27:52;5.50;;;4.53;;
1026;SDS011;502;48.746;9.214;2023-04-25T05:30:35;4.00;;;3.40;;
1026;SDS011;502;48.746;9.214;2023-04-25T05:33:08;4.43;;;3.80;;
1026;SDS011;502;48.746;9.214;2023-04-25T05:35:35;4.50;;;4.10;;
1026;SDS011;502;48.746;9.214;2023-04-25T05:38:01;6.30;;;4.60;;
1026;SDS011;502;48.746;9.214;2023-04-25T05:40:51;6.50;;;4.73;;
1026;SDS011;502;48.746;9.214;2023-04-25T05:43:37;5.00;;;4.40;;
1026;SDS011;502;48.746;9.214;2023-04-25T05:46:21;5.50;;;4.60;;
1026;SDS011;502;48.746;9.214;2023-04-25T05:49:05;5.23;;;4.70;;
1026;SDS011;502;48.746;9.214;2023-04-25T05:51:41;6.10;;;4.00;;
1026;SDS011;502;48.746;9.214;2023-04-25T05:54:13;5.63;;;4.33;;
1026;SDS011;502;48.746;9.214;2023-04-25T05:56:40;5.13;;;4.53;;
1026;SDS011;502;48.746;9.214;2023-04-25T05:59:07;5.23;;;3.80;;
1026;SDS011;502;48.746;9.214;2023-04-25T06:01:33;5.30;;;4.47;;
1026;SDS011;502;48.746;9.214;2023-04-25T06:04:04;6.93;;;5.03;;
1026;SDS011;502;48.746;9.214;2023-04-25T06:06:32;5.30;;;4.10;;
1026;SDS011;502;48.746;9.214;2023-04-25T06:08:59;4.73;;;3.80;;
1026;SDS011;502;48.746;9.214;2023-04-25T06:11:26;4.90;;;4.40;;
1026;SDS011;502;48.746;9.214;2023-04-25T06:13:52;5.03;;;4.53;;
1026;SDS011;502;48.746;9.214;2023-04-25T06:16:19;7.00;;;4.27;;
1026;SDS011;502;48.746;9.214;2023-04-25T06:18:45;3.67;;;3.27;;
1026;SDS011;502;48.746;9.214;2023-04-25T06:21:13;4.13;;;3.37;;
1026;SDS011;502;48.746;9.214;2023-04-25T06:23:40;4.23;;;3.83;;
1026;SDS011;502;48.746;9.214;2023-04-25T06:26:10;3.73;;;3.33;;
1026;SDS011;502;48.746;9.214;2023-04-25T06:28:39;5.80;;;4.07;;
1026;SDS011;502;48.746;9.214;2023-04-25T06:31:05;4.03;;;3.40;;
1026;SDS011;502;48.746;9.214;2023-04-25T06:33:32;4.20;;;3.80;;
1026;SDS011;502;48.746;9.214;2023-04-25T06:35:59;4.53;;;3.70;;
1026;SDS011;502;48.746;9.214;2023-04-25T06:38:28;5.10;;;3.70;;
1026;SDS011;502;48.746;9.214;2023-04-25T06:40:56;3.70;;;3.30;;
1026;SDS011;502;48.746;9.214;2023-04-25T06:43:23;6.13;;;3.90;;
1026;SDS011;502;48.746;9.214;2023-04-25T06:46:02;4.07;;;3.60;;
1026;SDS011;502;48.746;9.214;2023-04-25T06:48:31;4.90;;;4.20;;
1026;SDS011;502;48.746;9.214;2023-04-25T06:50:58;4.97;;;4.37;;
1026;SDS011;502;48.746;9.214;2023-04-25T06:53:25;5.17;;;4.20;;
1026;SDS011;502;48.746;9.214;2023-04-25T06:56:00;4.97;;;3.63;;
1026;SDS011;502;48.746;9.214;2023-04-25T06:58:37;5.80;;;3.27;;
1026;SDS011;502;48.746;9.214;2023-04-25T07:01:20;4.10;;;3.70;;
1026;SDS011;502;48.746;9.214;2023-04-25T07:03:47;3.63;;;3.30;;
1026;SDS011;502;48.746;9.214;2023-04-25T07:06:16;4.37;;;3.97;;
1026;SDS011;502;48.746;9.214;2023-04-25T07:08:44;4.40;;;3.43;;
1026;SDS011;502;48.746;9.214;2023-04-25T07:11:12;4.00;;;3.33;;
1026;SDS011;502;48.746;9.214;2023-04-25T07:13:39;4.27;;;3.30;;
1026;SDS011;502;48.746;9.214;2023-04-25T07:16:06;4.20;;;3.43;;
1026;SDS011;502;48.746;9.214;2023-04-25T07:18:34;3.70;;;3.30;;
1026;SDS011;502;48.746;9.214;2023-04-25T07:21:01;4.70;;;4.10;;
1026;SDS011;502;48.746;9.214;2023-04-25T07:23:28;4.83;;;3.60;;
1026;SDS011;502;48.746;9.214;2023-04-25T07:25:58;4.30;;;3.90;;
1026;SDS011;502;48.746;9.214;2023-04-25T07:28:27;5.23;;;3.90;;
1026;SDS011;502;48.746;9.214;2023-04-25T07:30:53;7.17;;;5.00;;
1026;SDS011;502;48.746;9.214;2023-04-25T07:33:20;5.23;;;4.70;;
1026;SDS011;502;48.746;9.214;2023-04-25T07:35:46;5.60;;;4.50;;
1026;SDS011;502;48.746;9.214;2023-04-25T07:38:13;4.93;;;4.40;;
1026;SDS011;502;48.746;9.214;2023-04-25T07:40:40;5.00;;;4.47;;
1026;SDS011;502;48.746;9.214;2023-04-25T07:43:08;6.30;;;4.57;;
1026;SDS011;502;48.746;9.214;2023-04-25T07:45:46;5.93;;;4.70;;
1026;SDS011;502;48.746;9.214;2023-04-25T07:48:16;5.87;;;5.37;;
1026;SDS011;502;48.746;9.214;2023-04-25T07:50:45;5.70;;;4.80;;
1026;SDS011;502;48.746;9.214;2023-04-25T07:53:11;7.90;;;5.50;;
1026;SDS011;502;48.746;9.214;2023-04-25T07:55:45;5.70;;;4.80;;
1026;SDS011;502;48.746;9.214;2023-04-25T07:58:16;5.23;;;4.73;;
1026;SDS011;502;48.746;9.214;2023-04-25T08:00:49;6.13;;;4.63;;
1026;SDS011;502;48.746;9.214;2023-04-25T08:03:43;8.70;;;6.07;;
1026;SDS011;502;48.746;9.214;2023-04-25T08:06:15;5.63;;;5.03;;
1026;SDS011;502;48.746;9.214;2023-04-25T08:08:52;5.73;;;4.90;;
1026;SDS011;502;48.746;9.214;2023-04-25T08:11:21;7.00;;;4.90;;
1026;SDS011;502;48.746;9.214;2023-04-25T08:13:49;5.70;;;5.00;;
1026;SDS011;502;48.746;9.214;2023-04-25T08:16:17;5.60;;;4.90;;
1026;SDS011;502;48.746;9.214;2023-04-25T08:18:45;6.83;;;5.30;;
1026;SDS011;502;48.746;9.214;2023-04-25T08:21:12;6.00;;;5.33;;
1026;SDS011;502;48.746;9.214;2023-04-25T08:23:38;6.43;;;4.70;;
1026;SDS011;502;48.746;9.214;2023-04-25T08:26:20;6.63;;;5.10;;
1026;SDS011;502;48.746;9.214;2023-04-25T08:28:48;6.50;;;5.40;;
1026;SDS011;502;48.746;9.214;2023-04-25T08:31:15;8.70;;;6.23;;
1026;SDS011;502;48.746;9.214;2023-04-25T08:34:12;6.47;;;5.77;;
1026;SDS011;502;48.746;9.214;2023-04-25T08:36:44;7.77;;;6.60;;
1026;SDS011;502;48.746;9.214;2023-04-25T08:39:27;7.10;;;6.40;;
1026;SDS011;502;48.746;9.214;2023-04-25T08:42:12;7.17;;;5.70;;
1026;SDS011;502;48.746;9.214;2023-04-25T08:44:39;7.40;;;5.90;;
1026;SDS011;502;48.746;9.214;2023-04-25T08:47:06;6.90;;;5.83;;
1026;SDS011;502;48.746;9.214;2023-04-25T08:49:42;6.90;;;5.60;;
1026;SDS011;502;48.746;9.214;2023-04-25T08:52:11;8.80;;;5.87;;
1026;SDS011;502;48.746;9.214;2023-04-25T08:54:41;7.97;;;6.33;;
1026;SDS011;502;48.746;9.214;2023-04-25T08:57:09;7.30;;;6.27;;
1026;SDS011;502;48.746;9.214;2023-04-25T08:59:35;7.57;;;5.60;;
1026;SDS011;502;48.746;9.214;2023-04-25T09:02:04;7.50;;;6.40;;
1026;SDS011;502;48.746;9.214;2023-04-25T09:04:31;6.50;;;5.33;;
1026;SDS011;502;48.746;9.214;2023-04-25T09:06:59;7.97;;;6.57;;
1026;SDS011;502;48.746;9.214;2023-04-25T09:09:26;7.07;;;6.17;;
1026;SDS011;502;48.746;9.214;2023-04-25T09:11:53;9.20;;;6.60;;
1026;SDS011;502;48.746;9.214;2023-04-25T09:14:20;11.10;;;6.97;;
1026;SDS011;502;48.746;9.214;2023-04-25T09:17:10;7.70;;;6.50;;
1026;SDS011;502;48.746;9.214;2023-04-25T09:19:40;7.50;;;5.77;;
1026;SDS011;502;48.746;9.214;2023-04-25T09:22:30;8.40;;;6.47;;
1026;SDS011;502;48.746;9.214;2023-04-25T09:24:57;6.53;;;5.93;;
1026;SDS011;502;48.746;9.214;2023-04-25T09:27:27;7.57;;;6.07;;
1026;SDS011;502;48.746;9.214;2023-04-25T09:30:02;6.50;;;5.80;;
1026;SDS011;502;48.746;9.214;2023-04-25T09:32:52;7.47;;;6.67;;
1026;SDS011;502;48.746;9.214;2023-04-25T09:35:23;6.50;;;5.70;;
1026;SDS011;502;48.746;9.214;2023-04-25T09:37:53;8.00;;;6.33;;
1026;SDS011;502;48.746;9.214;2023-04-25T09:40:39;7.20;;;5.90;;
1026;SDS011;502;48.746;9.214;2023-04-25T09:43:18;7.70;;;6.30;;
1026;SDS011;502;48.746;9.214;2023-04-25T09:45:46;6.90;;;5.10;;
1026;SDS011;502;48.746;9.214;2023-04-25T09:48:16;7.70;;;6.50;;
1026;SDS011;502;48.746;9.214;2023-04-25T09:50:48;8.17;;;6.03;;
1026;SDS011;502;48.746;9.214;2023-04-25T09:53:31;6.60;;;5.37;;
1026;SDS011;502;48.746;9.214;2023-04-25T09:56:13;5.70;;;5.20;;
1026;SDS011;502;48.746;9.214;2023-04-25T09:58:41;5.73;;;4.87;;
1026;SDS011;502;48.746;9.214;2023-04-25T10:01:09;5.80;;;5.07;;
1026;SDS011;502;48.746;9.214;2023-04-25T10:03:48;5.27;;;4.77;;
1026;SDS011;502;48.746;9.214;2023-04-25T10:06:29;4.33;;;3.93;;
1026;SDS011;502;48.746;9.214;2023-04-25T10:08:57;5.80;;;4.20;;
1026;SDS011;502;48.746;9.214;2023-04-25T10:11:24;4.57;;;4.10;;
1026;SDS011;502;48.746;9.214;2023-04-25T10:13:51;5.53;;;4.80;;
1026;SDS011;502;48.746;9.214;2023-04-25T10:16:17;4.57;;;3.97;;
1026;SDS011;502;48.746;9.214;2023-04-25T10:18:44;5.20;;;3.87;;
1026;SDS011;502;48.746;9.214;2023-04-25T10:21:10;3.70;;;3.10;;
1026;SDS011;502;48.746;9.214;2023-04-25T10:23:37;4.70;;;3.60;;
1026;SDS011;502;48.746;9.214;2023-04-25T10:26:05;4.73;;;3.17;;
1026;SDS011;502;48.746;9.214;2023-04-25T10:31:21;3.70;;;2.77;;
1026;SDS011;502;48.746;9.214;2023-04-25T10:33:48;2.87;;;2.30;;
1026;SDS011;502;48.746;9.214;2023-04-25T10:36:18;2.60;;;2.40;;
1026;SDS011;502;48.746;9.214;2023-04-25T10:38:47;3.33;;;3.03;;
1026;SDS011;502;48.746;9.214;2023-04-25T10:41:17;2.50;;;1.90;;
1026;SDS011;502;48.746;9.214;2023-04-25T10:43:45;2.87;;;2.30;;
1026;SDS011;502;48.746;9.214;2023-04-25T10:46:13;3.50;;;2.40;;
1026;SDS011;502;48.746;9.214;2023-04-25T10:48:45;1.90;;;1.53;;
1026;SDS011;502;48.746;9.214;2023-04-25T10:51:16;2.17;;;1.50;;
1026;SDS011;502;48.746;9.214;2023-04-25T10:53:47;2.17;;;1.67;;
1026;SDS011;502;48.746;9.214;2023-04-25T10:56:24;2.07;;;1.80;;
1026;SDS011;502;48.746;9.214;2023-04-25T10:58:52;1.90;;;1.57;;
1026;SDS011;502;48.746;9.214;2023-04-25T11:01:35;3.33;;;1.43;;
1026;SDS011;502;48.746;9.214;2023-04-25T11:04:02;2.67;;;1.70;;
1026;SDS011;502;48.746;9.214;2023-04-25T11:06:31;3.10;;;2.20;;
1026;SDS011;502;48.746;9.214;2023-04-25T11:09:02;3.47;;;2.87;;
1026;SDS011;502;48.746;9.214;2023-04-25T11:11:30;3.27;;;2.70;;
1026;SDS011;502;48.746;9.214;2023-04-25T11:13:57;3.57;;;3.17;;
1026;SDS011;502;48.746;9.214;2023-04-25T11:16:23;5.87;;;3.47;;
1026;SDS011;502;48.746;9.214;2023-04-25T11:18:50;5.07;;;3.03;;
1026;SDS011;502;48.746;9.214;2023-04-25T11:21:17;3.37;;;2.80;;
1026;SDS011;502;48.746;9.214;2023-04-25T11:23:44;2.40;;;2.00;;
1026;SDS011;502;48.746;9.214;2023-04-25T11:26:11;2.80;;;2.13;;
1026;SDS011;502;48.746;9.214;2023-04-25T11:28:39;5.20;;;2.70;;
1026;SDS011;502;48.746;9.214;2023-04-25T11:31:05;3.40;;;2.70;;
1026;SDS011;502;48.746;9.214;2023-04-25T11:33:32;4.93;;;2.53;;
1026;SDS011;502;48.746;9.214;2023-04-25T11:35:58;3.70;;;2.87;;
1026;SDS011;502;48.746;9.214;2023-04-25T11:38:25;2.77;;;2.47;;
1026;SDS011;502;48.746;9.214;2023-04-25T11:40:51;4.43;;;3.33;;
1026;SDS011;502;48.746;9.214;2023-04-25T11:43:20;4.13;;;3.60;;
1026;SDS011;502;48.746;9.214;2023-04-25T11:45:48;3.70;;;3.40;;
1026;SDS011;502;48.746;9.214;2023-04-25T11:48:15;4.00;;;3.13;;
1026;SDS011;502;48.746;9.214;2023-04-25T11:50:42;3.77;;;3.37;;
1026;SDS011;502;48.746;9.214;2023-04-25T11:53:08;5.40;;;2.73;;
1026;SDS011;502;48.746;9.214;2023-04-25T11:55:35;3.70;;;3.20;;
1026;SDS011;502;48.746;9.214;2023-04-25T11:58:03;3.53;;;3.20;;
1026;SDS011;502;48.746;9.214;2023-04-25T12:00:30;3.60;;;3.17;;
1026;SDS011;502;48.746;9.214;2023-04-25T12:02:58;3.70;;;3.07;;
1026;SDS011;502;48.746;9.214;2023-04-25T12:05:26;5.07;;;3.40;;
1026;SDS011;502;48.746;9.214;2023-04-25T12:07:53;4.47;;;3.77;;
1026;SDS011;502;48.746;9.214;2023-04-25T12:10:20;4.67;;;4.17;;
1026;SDS011;502;48.746;9.214;2023-04-25T12:12:47;4.77;;;4.30;;
1026;SDS011;502;48.746;9.214;2023-04-25T12:15:23;5.53;;;4.80;;
1026;SDS011;502;48.746;9.214;2023-04-25T12:17:54;5.90;;;4.80;;
1026;SDS011;502;48.746;9.214;2023-04-25T12:20:25;5.13;;;4.67;;
1026;SDS011;502;48.746;9.214;2023-04-25T12:22:52;6.47;;;5.33;;
1026;SDS011;502;48.746;9.214;2023-04-25T12:25:34;6.70;;;5.50;;
1026;SDS011;502;48.746;9.214;2023-04-25T12:28:14;6.07;;;5.13;;
1026;SDS011;502;48.746;9.214;2023-04-25T12:30:54;7.10;;;5.67;;
1026;SDS011;502;48.746;9.214;2023-04-25T12:33:21;7.40;;;5.50;;
1026;SDS011;502;48.746;9.214;2023-04-25T12:35:49;6.90;;;6.07;;
1026;SDS011;502;48.746;9.214;2023-04-25T12:38:23;8.30;;;5.80;;
1026;SDS011;502;48.746;9.214;2023-04-25T12:40:50;8.10;;;6.47;;
1026;SDS011;502;48.746;9.214;2023-04-25T12:43:17;6.33;;;5.60;;
1026;SDS011;502;48.746;9.214;2023-04-25T12:45:44;6.90;;;5.20;;
1026;SDS011;502;48.746;9.214;2023-04-25T12:48:10;6.97;;;5.50;;
1026;SDS011;502;48.746;9.214;2023-04-25T12:50:37;8.13;;;6.37;;
1026;SDS011;502;48.746;9.214;2023-04-25T12:53:05;7.47;;;5.80;;
1026;SDS011;502;48.746;9.214;2023-04-25T12:55:31;7.27;;;5.63;;
1026;SDS011;502;48.746;9.214;2023-04-25T12:57:58;8.07;;;6.47;;
1026;SDS011;502;48.746;9.214;2023-04-25T13:00:24;10.80;;;7.03;;
1026;SDS011;502;48.746;9.214;2023-04-25T13:02:51;9.53;;;7.00;;
1026;SDS011;502;48.746;9.214;2023-04-25T13:05:18;6.90;;;5.80;;
1026;SDS011;502;48.746;9.214;2023-04-25T13:07:44;5.97;;;5.37;;
1026;SDS011;502;48.746;9.214;2023-04-25T13:10:12;7.93;;;5.80;;
1026;SDS011;502;48.746;9.214;2023-04-25T13:12:39;7.40;;;6.33;;
1026;SDS011;502;48.746;9.214;2023-04-25T13:15:06;7.27;;;6.07;;
1026;SDS011;502;48.746;9.214;2023-04-25T13:17:34;9.47;;;6.43;;
1026;SDS011;502;48.746;9.214;2023-04-25T13:20:01;7.70;;;6.03;;
1026;SDS011;502;48.746;9.214;2023-04-25T13:22:30;7.30;;;5.97;;
1026;SDS011;502;48.746;9.214;2023-04-25T13:24:56;7.47;;;6.67;;
1026;SDS011;502;48.746;9.214;2023-04-25T13:27:24;8.30;;;7.27;;
1026;SDS011;502;48.746;9.214;2023-04-25T13:29:51;8.93;;;7.50;;
1026;SDS011;502;48.746;9.214;2023-04-25T13:32:17;8.53;;;6.83;;
1026;SDS011;502;48.746;9.214;2023-04-25T13:34:44;7.70;;;6.90;;
1026;SDS011;502;48.746;9.214;2023-04-25T13:37:10;7.50;;;6.63;;
1026;SDS011;502;48.746;9.214;2023-04-25T13:39:37;9.60;;;7.60;;
1026;SDS011;502;48.746;9.214;2023-04-25T13:42:03;7.93;;;6.40;;
1026;SDS011;502;48.746;9.214;2023-04-25T13:44:32;8.80;;;7.40;;
1026;SDS011;502;48.746;9.214;2023-04-25T13:46:58;9.87;;;8.30;;
1026;SDS011;502;48.746;9.214;2023-04-25T13:49:25;7.83;;;7.00;;
1026;SDS011;502;48.746;9.214;2023-04-25T13:51:52;10.60;;;7.67;;
1026;SDS011;502;48.746;9.214;2023-04-25T13:54:18;8.70;;;7.40;;
1026;SDS011;502;48.746;9.214;2023-04-25T13:56:45;9.40;;;7.80;;
1026;SDS011;502;48.746;9.214;2023-04-25T13:59:11;8.90;;;8.00;;
1026;SDS011;502;48.746;9.214;2023-04-25T14:01:39;9.20;;;7.37;;
1026;SDS011;502;48.746;9.214;2023-04-25T14:04:06;10.40;;;7.60;;
1026;SDS011;502;48.746;9.214;2023-04-25T14:06:33;9.67;;;7.47;;
1026;SDS011;502;48.746;9.214;2023-04-25T14:09:02;10.00;;;8.90;;
1026;SDS011;502;48.746;9.214;2023-04-25T14:11:29;8.60;;;7.10;;
1026;SDS011;502;48.746;9.214;2023-04-25T14:13:56;10.73;;;8.80;;
1026;SDS011;502;48.746;9.214;2023-04-25T14:16:23;12.97;;;8.73;;
1026;SDS011;502;48.746;9.214;2023-04-25T14:18:51;9.30;;;8.00;;
1026;SDS011;502;48.746;9.214;2023-04-25T14:21:17;11.80;;;8.83;;
1026;SDS011;502;48.746;9.214;2023-04-25T14:23:45;10.70;;;9.20;;
1026;SDS011;502;48.746;9.214;2023-04-25T14:26:12;13.30;;;9.73;;
1026;SDS011;502;48.746;9.214;2023-04-25T14:28:38;10.23;;;8.63;;
1026;SDS011;502;48.746;9.214;2023-04-25T14:31:05;14.23;;;9.27;;
1026;SDS011;502;48.746;9.214;2023-04-25T14:33:32;9.40;;;7.33;;
1026;SDS011;502;48.746;9.214;2023-04-25T14:36:00;10.00;;;6.80;;
1026;SDS011;502;48.746;9.214;2023-04-25T14:38:27;12.23;;;7.73;;
1026;SDS011;502;48.746;9.214;2023-04-25T14:40:54;8.60;;;7.27;;
1026;SDS011;502;48.746;9.214;2023-04-25T14:43:20;7.50;;;6.73;;
1026;SDS011;502;48.746;9.214;2023-04-25T14:45:47;7.53;;;6.73;;
1026;SDS011;502;48.746;9.214;2023-04-25T14:48:14;11.03;;;7.23;;
1026;SDS011;502;48.746;9.214;2023-04-25T14:50:41;7.23;;;6.53;;
1026;SDS011;502;48.746;9.214;2023-04-25T14:53:09;7.00;;;5.47;;
1026;SDS011;502;48.746;9.214;2023-04-25T14:55:36;7.07;;;5.87;;
1026;SDS011;502;48.746;9.214;2023-04-25T14:58:02;7.70;;;5.80;;
1026;SDS011;502;48.746;9.214;2023-04-25T15:00:29;6.53;;;5.93;;
1026;SDS011;502;48.746;9.214;2023-04-25T15:02:56;5.07;;;4.57;;
1026;SDS011;502;48.746;9.214;2023-04-25T15:05:24;6.40;;;5.70;;
1026;SDS011;502;48.746;9.214;2023-04-25T15:07:50;6.93;;;5.80;;
1026;SDS011;502;48.746;9.214;2023-04-25T15:10:18;6.37;;;5.77;;
1026;SDS011;502;48.746;9.214;2023-04-25T15:12:45;7.37;;;5.47;;
1026;SDS011;502;48.746;9.214;2023-04-25T15:15:12;8.17;;;7.00;;
1026;SDS011;502;48.746;9.214;2023-04-25T15:17:40;6.77;;;6.00;;
1026;SDS011;502;48.746;9.214;2023-04-25T15:20:07;6.90;;;6.20;;
1026;SDS011;502;48.746;9.214;2023-04-25T15:22:36;6.33;;;5.60;;
1026;SDS011;502;48.746;9.214;2023-04-25T15:25:02;7.03;;;6.10;;
1026;SDS011;502;48.746;9.214;2023-04-25T15:27:31;6.00;;;5.40;;
1026;SDS011;502;48.746;9.214;2023-04-25T15:29:58;6.30;;;5.53;;
1026;SDS011;502;48.746;9.214;2023-04-25T15:32:25;7.67;;;6.30;;
1026;SDS011;502;48.746;9.214;2023-04-25T15:34:51;7.07;;;5.87;;
1026;SDS011;502;48.746;9.214;2023-04-25T15:37:18;7.17;;;5.83;;
1026;SDS011;502;48.746;9.214;2023-04-25T15:39:44;9.13;;;6.17;;
1026;SDS011;502;48.746;9.214;2023-04-25T15:42:11;7.93;;;5.80;;
1026;SDS011;502;48.746;9.214;2023-04-25T15:44:39;7.30;;;6.50;;
1026;SDS011;502;48.746;9.214;2023-04-25T15:47:05;8.43;;;6.77;;
1026;SDS011;502;48.746;9.214;2023-04-25T15:49:32;8.30;;;6.57;;
1026;SDS011;502;48.746;9.214;2023-04-25T15:51:58;8.87;;;6.50;;